sensor_id;sensor_type;location;lat;lon;timestamp;temperature;humidity
13794;DHT22;31160;49.500;7.772;2023-12-28T00:02:12;3.00;99.90
13794;DHT22;31160;49.500;7.772;2023-12-28T00:04:40;3.00;99.90
13794;DHT22;31160;49.500;7.772;2023-12-28T00:07:08;2.90;99.90
13794;DHT22;31160;49.500;7.772;2023-12-28T00:09:35;2.90;99.90
13794;DHT22;31160;49.500;7.772;2023-12-28T00:12:02;2.90;99.90
13794;DHT22;31160;49.500;7.772;2023-12-28T00:14:31;2.90;99.90
13794;DHT22;31160;49.500;7.772;2023-12-28T00:16:58;2.80;99.90
13794;DHT22;31160;49.500;7.772;2023-12-28T00:19:28;2.90;99.90
13794;DHT22;31160;49.500;7.772;2023-12-28T00:21:56;2.90;99.90
13794;DHT22;31160;49.500;7.772;2023-12-28T00:24:24;2.90;99.90
13794;DHT22;31160;49.500;7.772;2023-12-28T00:26:51;3.00;99.90
13794;DHT22;31160;49.500;7.772;2023-12-28T00:29:18;3.00;99.90
13794;DHT22;31160;49.500;7.772;2023-12-28T00:31:46;3.10;99.90
13794;DHT22;31160;49.500;7.772;2023-12-28T00:34:13;3.10;99.90
13794;DHT22;31160;49.500;7.772;2023-12-28T00:36:40;3.10;99.90
13794;DHT22;31160;49.500;7.772;2023-12-28T00:39:08;3.20;99.90
13794;DHT22;31160;49.500;7.772;2023-12-28T00:41:36;3.30;99.90
13794;DHT22;31160;49.500;7.772;2023-12-28T00:44:04;3.50;99.90
13794;DHT22;31160;49.500;7.772;2023-12-28T00:46:34;3.70;99.90
13794;DHT22;31160;49.500;7.772;2023-12-28T00:49:04;3.80;99.90
13794;DHT22;31160;49.500;7.772;2023-12-28T00:51:33;4.10;99.90
13794;DHT22;31160;49.500;7.772;2023-12-28T00:54:01;4.30;99.90
13794;DHT22;31160;49.500;7.772;2023-12-28T00:56:29;4.50;99.90
13794;DHT22;31160;49.500;7.772;2023-12-28T00:58:57;4.70;99.90
13794;DHT22;31160;49.500;7.772;2023-12-28T01:01:25;4.90;99.90
13794;DHT22;31160;49.500;7.772;2023-12-28T01:03:53;5.20;99.90
13794;DHT22;31160;49.500;7.772;2023-12-28T01:06:22;5.50;99.90
13794;DHT22;31160;49.500;7.772;2023-12-28T01:08:56;5.80;99.90
13794;DHT22;31160;49.500;7.772;2023-12-28T01:11:24;5.90;99.90
13794;DHT22;31160;49.500;7.772;2023-12-28T01:13:52;6.10;99.90
13794;DHT22;31160;49.500;7.772;2023-12-28T01:16:19;6.20;99.90
13794;DHT22;31160;49.500;7.772;2023-12-28T01:18:48;6.40;99.90
13794;DHT22;31160;49.500;7.772;2023-12-28T01:21:16;6.70;99.90
13794;DHT22;31160;49.500;7.772;2023-12-28T01:23:45;6.80;99.90
13794;DHT22;31160;49.500;7.772;2023-12-28T01:26:14;6.90;99.90
13794;DHT22;31160;49.500;7.772;2023-12-28T01:28:42;7.00;99.90
13794;DHT22;31160;49.500;7.772;2023-12-28T01:31:11;7.00;99.90
13794;DHT22;31160;49.500;7.772;2023-12-28T01:33:38;7.00;99.90
13794;DHT22;31160;49.500;7.772;2023-12-28T01:36:26;7.00;99.90
13794;DHT22;31160;49.500;7.772;2023-12-28T01:38:58;7.10;99.90
13794;DHT22;31160;49.500;7.772;2023-12-28T01:41:26;7.00;99.90
13794;DHT22;31160;49.500;7.772;2023-12-28T01:43:55;7.10;99.90
13794;DHT22;31160;49.500;7.772;2023-12-28T01:46:22;7.20;99.90
13794;DHT22;31160;49.500;7.772;2023-12-28T01:48:50;7.10;99.90
13794;DHT22;31160;49.500;7.772;2023-12-28T01:51:19;7.30;99.90
13794;DHT22;31160;49.500;7.772;2023-12-28T01:53:49;7.50;99.90
13794;DHT22;31160;49.500;7.772;2023-12-28T01:56:20;7.50;99.90
13794;DHT22;31160;49.500;7.772;2023-12-28T01:58:49;7.40;99.90
13794;DHT22;31160;49.500;7.772;2023-12-28T02:01:18;7.40;99.90
13794;DHT22;31160;49.500;7.772;2023-12-28T02:03:47;7.40;99.90
13794;DHT22;31160;49.500;7.772;2023-12-28T02:06:15;7.40;99.90
13794;DHT22;31160;49.500;7.772;2023-12-28T02:08:47;7.30;99.90
13794;DHT22;31160;49.500;7.772;2023-12-28T02:11:17;7.20;99.90
13794;DHT22;31160;49.500;7.772;2023-12-28T02:13:46;7.20;99.90
13794;DHT22;31160;49.500;7.772;2023-12-28T02:16:21;7.20;99.90
13794;DHT22;31160;49.500;7.772;2023-12-28T02:18:52;7.10;99.90
13794;DHT22;31160;49.500;7.772;2023-12-28T02:21:21;7.10;99.90
13794;DHT22;31160;49.500;7.772;2023-12-28T02:23:50;7.30;99.90
13794;DHT22;31160;49.500;7.772;2023-12-28T02:26:18;7.20;99.90
13794;DHT22;31160;49.500;7.772;2023-12-28T02:28:46;7.20;99.90
13794;DHT22;31160;49.500;7.772;2023-12-28T02:31:35;7.20;99.90
13794;DHT22;31160;49.500;7.772;2023-12-28T02:34:09;7.10;99.90
13794;DHT22;31160;49.500;7.772;2023-12-28T02:36:39;7.10;99.90
13794;DHT22;31160;49.500;7.772;2023-12-28T02:39:10;7.00;99.90
13794;DHT22;31160;49.500;7.772;2023-12-28T02:41:39;6.90;99.90
13794;DHT22;31160;49.500;7.772;2023-12-28T02:44:07;6.90;99.90
13794;DHT22;31160;49.500;7.772;2023-12-28T02:46:34;6.90;99.90
13794;DHT22;31160;49.500;7.772;2023-12-28T02:49:04;6.90;99.90
13794;DHT22;31160;49.500;7.772;2023-12-28T02:51:32;6.90;99.90
13794;DHT22;31160;49.500;7.772;2023-12-28T02:54:00;6.80;99.90
13794;DHT22;31160;49.500;7.772;2023-12-28T02:56:27;6.80;99.90
13794;DHT22;31160;49.500;7.772;2023-12-28T02:58:54;6.90;99.90
13794;DHT22;31160;49.500;7.772;2023-12-28T03:01:21;6.90;99.90
13794;DHT22;31160;49.500;7.772;2023-12-28T03:03:49;7.00;99.90
13794;DHT22;31160;49.500;7.772;2023-12-28T03:06:16;7.00;99.90
13794;DHT22;31160;49.500;7.772;2023-12-28T03:08:42;7.00;99.90
13794;DHT22;31160;49.500;7.772;2023-12-28T03:11:09;6.90;99.90
13794;DHT22;31160;49.500;7.772;2023-12-28T03:13:36;7.00;99.90
13794;DHT22;31160;49.500;7.772;2023-12-28T03:16:03;7.00;99.90
13794;DHT22;31160;49.500;7.772;2023-12-28T03:18:29;7.00;99.90
13794;DHT22;31160;49.500;7.772;2023-12-28T03:20:57;7.00;99.90
13794;DHT22;31160;49.500;7.772;2023-12-28T03:23:23;7.00;99.90
13794;DHT22;31160;49.500;7.772;2023-12-28T03:25:50;7.10;99.90
13794;DHT22;31160;49.500;7.772;2023-12-28T03:28:17;7.00;99.90
13794;DHT22;31160;49.500;7.772;2023-12-28T03:30:44;6.90;99.90
13794;DHT22;31160;49.500;7.772;2023-12-28T03:33:11;7.00;99.90
13794;DHT22;31160;49.500;7.772;2023-12-28T03:35:38;7.00;99.90
13794;DHT22;31160;49.500;7.772;2023-12-28T03:38:04;7.00;99.90
13794;DHT22;31160;49.500;7.772;2023-12-28T03:40:31;7.10;99.90
13794;DHT22;31160;49.500;7.772;2023-12-28T03:42:58;7.00;99.90
13794;DHT22;31160;49.500;7.772;2023-12-28T03:45:24;7.20;99.90
13794;DHT22;31160;49.500;7.772;2023-12-28T03:47:51;7.20;99.90
13794;DHT22;31160;49.500;7.772;2023-12-28T03:50:18;7.30;99.90
13794;DHT22;31160;49.500;7.772;2023-12-28T03:52:45;7.20;99.90
13794;DHT22;31160;49.500;7.772;2023-12-28T03:55:12;7.10;99.90
13794;DHT22;31160;49.500;7.772;2023-12-28T03:57:38;7.10;99.90
13794;DHT22;31160;49.500;7.772;2023-12-28T04:00:06;7.20;99.90
13794;DHT22;31160;49.500;7.772;2023-12-28T04:02:38;7.20;99.90
13794;DHT22;31160;49.500;7.772;2023-12-28T04:05:04;7.20;99.90
13794;DHT22;31160;49.500;7.772;2023-12-28T04:07:31;7.20;99.90
13794;DHT22;31160;49.500;7.772;2023-12-28T04:09:58;7.10;99.90
13794;DHT22;31160;49.500;7.772;2023-12-28T04:12:25;7.10;99.90
13794;DHT22;31160;49.500;7.772;2023-12-28T04:14:52;7.20;99.90
13794;DHT22;31160;49.500;7.772;2023-12-28T04:17:20;7.20;99.90
13794;DHT22;31160;49.500;7.772;2023-12-28T04:19:46;7.20;99.90
13794;DHT22;31160;49.500;7.772;2023-12-28T04:22:13;7.20;99.90
13794;DHT22;31160;49.500;7.772;2023-12-28T04:24:40;7.30;99.90
13794;DHT22;31160;49.500;7.772;2023-12-28T04:27:07;7.20;99.90
13794;DHT22;31160;49.500;7.772;2023-12-28T04:29:35;7.20;99.90
13794;DHT22;31160;49.500;7.772;2023-12-28T04:32:02;7.20;99.90
13794;DHT22;31160;49.500;7.772;2023-12-28T04:34:29;7.20;99.90
13794;DHT22;31160;49.500;7.772;2023-12-28T04:36:55;7.10;99.90
13794;DHT22;31160;49.500;7.772;2023-12-28T04:39:22;7.20;99.90
13794;DHT22;31160;49.500;7.772;2023-12-28T04:41:49;7.20;99.90
13794;DHT22;31160;49.500;7.772;2023-12-28T04:44:16;7.10;99.90
13794;DHT22;31160;49.500;7.772;2023-12-28T04:46:42;7.20;99.90
13794;DHT22;31160;49.500;7.772;2023-12-28T04:49:11;7.20;99.90
13794;DHT22;31160;49.500;7.772;2023-12-28T04:51:43;7.20;99.90
13794;DHT22;31160;49.500;7.772;2023-12-28T04:54:10;7.20;99.90
13794;DHT22;31160;49.500;7.772;2023-12-28T04:56:36;7.20;99.90
13794;DHT22;31160;49.500;7.772;2023-12-28T04:59:03;7.30;99.90
13794;DHT22;31160;49.500;7.772;2023-12-28T05:01:31;7.30;99.90
13794;DHT22;31160;49.500;7.772;2023-12-28T05:03:59;7.40;99.90
13794;DHT22;31160;49.500;7.772;2023-12-28T05:06:28;7.40;99.90
13794;DHT22;31160;49.500;7.772;2023-12-28T05:08:55;7.50;99.90
13794;DHT22;31160;49.500;7.772;2023-12-28T05:11:22;7.60;99.90
13794;DHT22;31160;49.500;7.772;2023-12-28T05:13:49;7.50;99.90
13794;DHT22;31160;49.500;7.772;2023-12-28T05:16:15;7.50;99.90
13794;DHT22;31160;49.500;7.772;2023-12-28T05:18:42;7.60;99.90
13794;DHT22;31160;49.500;7.772;2023-12-28T05:21:09;7.60;99.90
13794;DHT22;31160;49.500;7.772;2023-12-28T05:23:36;7.60;99.90
13794;DHT22;31160;49.500;7.772;2023-12-28T05:26:02;7.60;99.90
13794;DHT22;31160;49.500;7.772;2023-12-28T05:28:29;7.70;99.90
13794;DHT22;31160;49.500;7.772;2023-12-28T05:30:56;7.60;99.90
13794;DHT22;31160;49.500;7.772;2023-12-28T05:33:25;7.60;99.90
13794;DHT22;31160;49.500;7.772;2023-12-28T05:35:52;7.60;99.90
13794;DHT22;31160;49.500;7.772;2023-12-28T05:38:19;7.60;99.90
13794;DHT22;31160;49.500;7.772;2023-12-28T05:40:46;7.70;99.90
13794;DHT22;31160;49.500;7.772;2023-12-28T05:43:13;7.80;99.90
13794;DHT22;31160;49.500;7.772;2023-12-28T05:45:39;7.90;99.90
13794;DHT22;31160;49.500;7.772;2023-12-28T05:48:06;7.90;99.90
13794;DHT22;31160;49.500;7.772;2023-12-28T05:50:34;7.90;99.90
13794;DHT22;31160;49.500;7.772;2023-12-28T05:53:00;7.80;99.90
13794;DHT22;31160;49.500;7.772;2023-12-28T05:55:27;7.80;99.90
13794;DHT22;31160;49.500;7.772;2023-12-28T05:57:54;7.90;99.90
13794;DHT22;31160;49.500;7.772;2023-12-28T06:00:21;8.00;99.90
13794;DHT22;31160;49.500;7.772;2023-12-28T06:02:47;8.00;99.90
13794;DHT22;31160;49.500;7.772;2023-12-28T06:05:18;7.90;99.90
13794;DHT22;31160;49.500;7.772;2023-12-28T06:07:44;7.90;99.90
13794;DHT22;31160;49.500;7.772;2023-12-28T06:10:11;7.90;99.90
13794;DHT22;31160;49.500;7.772;2023-12-28T06:12:38;7.90;99.90
13794;DHT22;31160;49.500;7.772;2023-12-28T06:15:05;7.90;99.90
13794;DHT22;31160;49.500;7.772;2023-12-28T06:17:32;8.00;99.90
13794;DHT22;31160;49.500;7.772;2023-12-28T06:20:01;8.00;99.90
13794;DHT22;31160;49.500;7.772;2023-12-28T06:22:28;7.90;99.90
13794;DHT22;31160;49.500;7.772;2023-12-28T06:24:55;8.00;99.90
13794;DHT22;31160;49.500;7.772;2023-12-28T06:27:22;8.00;99.90
13794;DHT22;31160;49.500;7.772;2023-12-28T06:29:50;8.00;99.90
13794;DHT22;31160;49.500;7.772;2023-12-28T06:32:16;8.00;99.90
13794;DHT22;31160;49.500;7.772;2023-12-28T06:34:43;8.00;99.90
13794;DHT22;31160;49.500;7.772;2023-12-28T06:37:10;8.10;99.90
13794;DHT22;31160;49.500;7.772;2023-12-28T06:39:37;8.00;99.90
13794;DHT22;31160;49.500;7.772;2023-12-28T06:42:04;8.10;99.90
13794;DHT22;31160;49.500;7.772;2023-12-28T06:44:30;8.00;99.90
13794;DHT22;31160;49.500;7.772;2023-12-28T06:46:57;8.00;99.90
13794;DHT22;31160;49.500;7.772;2023-12-28T06:49:25;7.90;99.90
13794;DHT22;31160;49.500;7.772;2023-12-28T06:51:52;8.10;99.90
13794;DHT22;31160;49.500;7.772;2023-12-28T06:54:19;8.00;99.90
13794;DHT22;31160;49.500;7.772;2023-12-28T06:56:45;8.10;99.90
13794;DHT22;31160;49.500;7.772;2023-12-28T06:59:12;8.00;99.90
13794;DHT22;31160;49.500;7.772;2023-12-28T07:01:39;8.20;99.90
13794;DHT22;31160;49.500;7.772;2023-12-28T07:04:07;8.20;99.90
13794;DHT22;31160;49.500;7.772;2023-12-28T07:06:34;8.20;99.90
13794;DHT22;31160;49.500;7.772;2023-12-28T07:09:00;8.10;99.90
13794;DHT22;31160;49.500;7.772;2023-12-28T07:11:27;8.10;99.90
13794;DHT22;31160;49.500;7.772;2023-12-28T07:13:54;8.20;99.90
13794;DHT22;31160;49.500;7.772;2023-12-28T07:16:21;8.20;99.90
13794;DHT22;31160;49.500;7.772;2023-12-28T07:18:47;8.20;99.90
13794;DHT22;31160;49.500;7.772;2023-12-28T07:21:14;8.20;99.90
13794;DHT22;31160;49.500;7.772;2023-12-28T07:23:41;8.20;99.90
13794;DHT22;31160;49.500;7.772;2023-12-28T07:26:08;8.20;99.90
13794;DHT22;31160;49.500;7.772;2023-12-28T07:28:35;8.20;99.90
13794;DHT22;31160;49.500;7.772;2023-12-28T07:31:02;8.20;99.90
13794;DHT22;31160;49.500;7.772;2023-12-28T07:33:29;8.30;99.90
13794;DHT22;31160;49.500;7.772;2023-12-28T07:35:56;8.30;99.90
13794;DHT22;31160;49.500;7.772;2023-12-28T07:38:26;8.30;99.90
13794;DHT22;31160;49.500;7.772;2023-12-28T07:40:53;8.30;99.90
13794;DHT22;31160;49.500;7.772;2023-12-28T07:43:19;8.30;99.90
13794;DHT22;31160;49.500;7.772;2023-12-28T07:45:46;8.40;99.90
13794;DHT22;31160;49.500;7.772;2023-12-28T07:48:13;8.30;99.90
13794;DHT22;31160;49.500;7.772;2023-12-28T07:50:40;8.30;99.90
13794;DHT22;31160;49.500;7.772;2023-12-28T07:53:07;8.50;99.90
13794;DHT22;31160;49.500;7.772;2023-12-28T07:55:33;8.30;99.90
13794;DHT22;31160;49.500;7.772;2023-12-28T07:58:00;8.40;99.90
13794;DHT22;31160;49.500;7.772;2023-12-28T08:00:27;8.40;99.90
13794;DHT22;31160;49.500;7.772;2023-12-28T08:02:54;8.50;99.90
13794;DHT22;31160;49.500;7.772;2023-12-28T08:05:21;8.40;99.90
13794;DHT22;31160;49.500;7.772;2023-12-28T08:07:47;8.30;99.90
13794;DHT22;31160;49.500;7.772;2023-12-28T08:10:14;8.30;99.90
13794;DHT22;31160;49.500;7.772;2023-12-28T08:12:41;8.30;99.90
13794;DHT22;31160;49.500;7.772;2023-12-28T08:15:09;8.30;99.90
13794;DHT22;31160;49.500;7.772;2023-12-28T08:17:36;8.30;99.90
13794;DHT22;31160;49.500;7.772;2023-12-28T08:20:04;8.30;99.90
13794;DHT22;31160;49.500;7.772;2023-12-28T08:22:31;8.40;99.90
13794;DHT22;31160;49.500;7.772;2023-12-28T08:24:58;8.30;99.90
13794;DHT22;31160;49.500;7.772;2023-12-28T08:27:24;8.40;99.90
13794;DHT22;31160;49.500;7.772;2023-12-28T08:29:51;8.50;99.90
13794;DHT22;31160;49.500;7.772;2023-12-28T08:32:18;8.50;99.90
13794;DHT22;31160;49.500;7.772;2023-12-28T08:34:45;8.60;99.90
13794;DHT22;31160;49.500;7.772;2023-12-28T08:37:13;8.70;99.90
13794;DHT22;31160;49.500;7.772;2023-12-28T08:39:40;8.70;99.90
13794;DHT22;31160;49.500;7.772;2023-12-28T08:42:06;8.70;99.90
13794;DHT22;31160;49.500;7.772;2023-12-28T08:44:33;8.60;99.90
13794;DHT22;31160;49.500;7.772;2023-12-28T08:47:01;8.50;99.90
13794;DHT22;31160;49.500;7.772;2023-12-28T08:49:28;8.50;99.90
13794;DHT22;31160;49.500;7.772;2023-12-28T08:51:56;8.60;99.90
13794;DHT22;31160;49.500;7.772;2023-12-28T08:54:22;8.70;99.90
13794;DHT22;31160;49.500;7.772;2023-12-28T08:56:49;8.60;99.90
13794;DHT22;31160;49.500;7.772;2023-12-28T08:59:19;8.60;99.90
13794;DHT22;31160;49.500;7.772;2023-12-28T09:01:46;8.60;99.90
13794;DHT22;31160;49.500;7.772;2023-12-28T09:04:13;8.60;99.90
13794;DHT22;31160;49.500;7.772;2023-12-28T09:06:40;8.70;99.90
13794;DHT22;31160;49.500;7.772;2023-12-28T09:09:07;8.70;99.90
13794;DHT22;31160;49.500;7.772;2023-12-28T09:11:34;8.50;99.90
13794;DHT22;31160;49.500;7.772;2023-12-28T09:14:01;8.60;99.90
13794;DHT22;31160;49.500;7.772;2023-12-28T09:16:28;8.60;99.90
13794;DHT22;31160;49.500;7.772;2023-12-28T09:18:55;8.70;99.90
13794;DHT22;31160;49.500;7.772;2023-12-28T09:21:23;8.80;99.90
13794;DHT22;31160;49.500;7.772;2023-12-28T09:23:52;8.80;99.90
13794;DHT22;31160;49.500;7.772;2023-12-28T09:26:18;8.90;99.90
13794;DHT22;31160;49.500;7.772;2023-12-28T09:28:45;8.80;99.90
13794;DHT22;31160;49.500;7.772;2023-12-28T09:31:12;8.90;99.90
13794;DHT22;31160;49.500;7.772;2023-12-28T09:33:39;8.80;99.90
13794;DHT22;31160;49.500;7.772;2023-12-28T09:36:06;8.80;99.90
13794;DHT22;31160;49.500;7.772;2023-12-28T09:38:34;8.80;99.90
13794;DHT22;31160;49.500;7.772;2023-12-28T09:41:11;8.80;99.90
13794;DHT22;31160;49.500;7.772;2023-12-28T09:43:45;8.90;99.90
13794;DHT22;31160;49.500;7.772;2023-12-28T09:46:14;9.10;99.90
13794;DHT22;31160;49.500;7.772;2023-12-28T09:48:41;9.20;99.90
13794;DHT22;31160;49.500;7.772;2023-12-28T09:51:10;9.30;99.90
13794;DHT22;31160;49.500;7.772;2023-12-28T09:53:42;9.30;99.90
13794;DHT22;31160;49.500;7.772;2023-12-28T09:56:10;9.30;99.90
13794;DHT22;31160;49.500;7.772;2023-12-28T09:58:38;9.40;99.90
13794;DHT22;31160;49.500;7.772;2023-12-28T10:01:07;9.40;99.90
13794;DHT22;31160;49.500;7.772;2023-12-28T10:03:36;9.50;99.90
13794;DHT22;31160;49.500;7.772;2023-12-28T10:06:02;9.50;99.90
13794;DHT22;31160;49.500;7.772;2023-12-28T10:08:29;9.60;99.90
13794;DHT22;31160;49.500;7.772;2023-12-28T10:10:56;9.60;99.90
13794;DHT22;31160;49.500;7.772;2023-12-28T10:13:25;9.50;99.90
13794;DHT22;31160;49.500;7.772;2023-12-28T10:15:52;9.40;99.90
13794;DHT22;31160;49.500;7.772;2023-12-28T10:18:19;9.40;99.90
13794;DHT22;31160;49.500;7.772;2023-12-28T10:20:50;9.30;99.90
13794;DHT22;31160;49.500;7.772;2023-12-28T10:23:19;9.30;99.90
13794;DHT22;31160;49.500;7.772;2023-12-28T10:25:46;9.30;99.90
13794;DHT22;31160;49.500;7.772;2023-12-28T10:28:12;9.20;99.90
13794;DHT22;31160;49.500;7.772;2023-12-28T10:30:40;9.10;99.90
13794;DHT22;31160;49.500;7.772;2023-12-28T10:33:08;9.10;99.90
13794;DHT22;31160;49.500;7.772;2023-12-28T10:35:35;9.20;99.90
13794;DHT22;31160;49.500;7.772;2023-12-28T10:38:04;9.30;99.90
13794;DHT22;31160;49.500;7.772;2023-12-28T10:40:31;9.30;99.90
13794;DHT22;31160;49.500;7.772;2023-12-28T10:43:05;9.20;99.90
13794;DHT22;31160;49.500;7.772;2023-12-28T10:45:34;9.30;99.90
13794;DHT22;31160;49.500;7.772;2023-12-28T10:48:05;9.30;99.90
13794;DHT22;31160;49.500;7.772;2023-12-28T10:50:49;9.30;99.90
13794;DHT22;31160;49.500;7.772;2023-12-28T10:53:38;9.40;99.90
13794;DHT22;31160;49.500;7.772;2023-12-28T10:56:20;9.40;99.90
13794;DHT22;31160;49.500;7.772;2023-12-28T11:01:30;9.20;99.90
13794;DHT22;31160;49.500;7.772;2023-12-28T11:04:04;9.30;99.90
13794;DHT22;31160;49.500;7.772;2023-12-28T11:06:33;9.40;99.90
13794;DHT22;31160;49.500;7.772;2023-12-28T11:09:00;9.30;99.90
13794;DHT22;31160;49.500;7.772;2023-12-28T11:11:28;9.30;99.90
13794;DHT22;31160;49.500;7.772;2023-12-28T11:13:56;9.50;99.90
13794;DHT22;31160;49.500;7.772;2023-12-28T11:16:27;9.60;99.90
13794;DHT22;31160;49.500;7.772;2023-12-28T11:18:55;9.50;99.90
13794;DHT22;31160;49.500;7.772;2023-12-28T11:21:23;9.50;99.90
13794;DHT22;31160;49.500;7.772;2023-12-28T11:23:50;9.50;99.90
13794;DHT22;31160;49.500;7.772;2023-12-28T11:26:18;9.50;99.90
13794;DHT22;31160;49.500;7.772;2023-12-28T11:28:45;9.40;99.90
13794;DHT22;31160;49.500;7.772;2023-12-28T11:31:16;9.50;99.90
13794;DHT22;31160;49.500;7.772;2023-12-28T11:33:48;9.40;99.90
13794;DHT22;31160;49.500;7.772;2023-12-28T11:36:26;9.40;99.90
13794;DHT22;31160;49.500;7.772;2023-12-28T11:39:03;9.30;99.90
13794;DHT22;31160;49.500;7.772;2023-12-28T11:41:32;9.30;99.90
13794;DHT22;31160;49.500;7.772;2023-12-28T11:44:04;9.40;99.90
13794;DHT22;31160;49.500;7.772;2023-12-28T11:46:35;9.30;99.90
13794;DHT22;31160;49.500;7.772;2023-12-28T11:49:07;9.30;99.90
13794;DHT22;31160;49.500;7.772;2023-12-28T11:51:39;9.30;99.90
13794;DHT22;31160;49.500;7.772;2023-12-28T11:54:06;9.20;99.90
13794;DHT22;31160;49.500;7.772;2023-12-28T11:56:33;9.30;99.90
13794;DHT22;31160;49.500;7.772;2023-12-28T11:59:00;9.30;99.90
13794;DHT22;31160;49.500;7.772;2023-12-28T12:01:27;9.30;99.90
13794;DHT22;31160;49.500;7.772;2023-12-28T12:03:54;9.30;99.90
13794;DHT22;31160;49.500;7.772;2023-12-28T12:06:21;9.30;99.90
13794;DHT22;31160;49.500;7.772;2023-12-28T12:08:49;9.10;99.90
13794;DHT22;31160;49.500;7.772;2023-12-28T12:11:17;9.20;99.90
13794;DHT22;31160;49.500;7.772;2023-12-28T12:13:45;9.10;99.90
13794;DHT22;31160;49.500;7.772;2023-12-28T12:16:14;9.20;99.90
13794;DHT22;31160;49.500;7.772;2023-12-28T12:18:41;9.00;99.90
13794;DHT22;31160;49.500;7.772;2023-12-28T12:21:08;9.10;99.90
13794;DHT22;31160;49.500;7.772;2023-12-28T12:23:34;9.10;99.90
13794;DHT22;31160;49.500;7.772;2023-12-28T12:26:05;9.00;99.90
13794;DHT22;31160;49.500;7.772;2023-12-28T12:28:31;9.10;99.90
13794;DHT22;31160;49.500;7.772;2023-12-28T12:30:59;9.10;99.90
13794;DHT22;31160;49.500;7.772;2023-12-28T12:33:28;9.20;99.90
13794;DHT22;31160;49.500;7.772;2023-12-28T12:35:56;9.10;99.90
13794;DHT22;31160;49.500;7.772;2023-12-28T12:38:22;9.20;99.90
13794;DHT22;31160;49.500;7.772;2023-12-28T12:40:51;9.00;99.90
13794;DHT22;31160;49.500;7.772;2023-12-28T12:43:18;9.10;99.90
13794;DHT22;31160;49.500;7.772;2023-12-28T12:45:46;9.00;99.90
13794;DHT22;31160;49.500;7.772;2023-12-28T12:48:15;9.10;99.90
13794;DHT22;31160;49.500;7.772;2023-12-28T12:50:43;9.10;99.90
13794;DHT22;31160;49.500;7.772;2023-12-28T12:53:10;9.00;99.90
13794;DHT22;31160;49.500;7.772;2023-12-28T12:55:38;8.90;99.90
13794;DHT22;31160;49.500;7.772;2023-12-28T12:58:13;8.90;99.90
13794;DHT22;31160;49.500;7.772;2023-12-28T13:00:40;9.00;99.90
13794;DHT22;31160;49.500;7.772;2023-12-28T13:03:09;9.00;99.90
13794;DHT22;31160;49.500;7.772;2023-12-28T13:05:36;8.80;99.90
13794;DHT22;31160;49.500;7.772;2023-12-28T13:08:10;8.60;99.90
13794;DHT22;31160;49.500;7.772;2023-12-28T13:10:37;8.60;99.90
13794;DHT22;31160;49.500;7.772;2023-12-28T13:13:07;8.60;99.90
13794;DHT22;31160;49.500;7.772;2023-12-28T13:15:34;8.70;99.90
13794;DHT22;31160;49.500;7.772;2023-12-28T13:18:01;8.60;99.90
13794;DHT22;31160;49.500;7.772;2023-12-28T13:20:27;8.50;99.90
13794;DHT22;31160;49.500;7.772;2023-12-28T13:22:54;8.50;99.90
13794;DHT22;31160;49.500;7.772;2023-12-28T13:25:21;8.50;99.90
13794;DHT22;31160;49.500;7.772;2023-12-28T13:27:48;8.60;99.90
13794;DHT22;31160;49.500;7.772;2023-12-28T13:30:15;8.50;99.90
13794;DHT22;31160;49.500;7.772;2023-12-28T13:32:42;8.60;99.90
13794;DHT22;31160;49.500;7.772;2023-12-28T13:35:09;8.60;99.90
13794;DHT22;31160;49.500;7.772;2023-12-28T13:37:35;8.60;99.90
13794;DHT22;31160;49.500;7.772;2023-12-28T13:40:02;8.60;99.90
13794;DHT22;31160;49.500;7.772;2023-12-28T13:42:29;8.70;99.90
13794;DHT22;31160;49.500;7.772;2023-12-28T13:44:56;8.70;99.90
13794;DHT22;31160;49.500;7.772;2023-12-28T13:47:23;8.80;99.90
13794;DHT22;31160;49.500;7.772;2023-12-28T13:49:50;8.80;99.90
13794;DHT22;31160;49.500;7.772;2023-12-28T13:52:17;8.80;99.90
13794;DHT22;31160;49.500;7.772;2023-12-28T13:54:43;8.70;99.90
13794;DHT22;31160;49.500;7.772;2023-12-28T13:57:10;8.80;99.90
13794;DHT22;31160;49.500;7.772;2023-12-28T13:59:37;8.90;99.90
13794;DHT22;31160;49.500;7.772;2023-12-28T14:02:04;8.80;99.90
13794;DHT22;31160;49.500;7.772;2023-12-28T14:04:30;8.70;99.90
13794;DHT22;31160;49.500;7.772;2023-12-28T14:06:57;8.90;99.90
13794;DHT22;31160;49.500;7.772;2023-12-28T14:09:24;9.00;99.90
13794;DHT22;31160;49.500;7.772;2023-12-28T14:11:51;8.90;99.90
13794;DHT22;31160;49.500;7.772;2023-12-28T14:14:18;9.00;99.90
13794;DHT22;31160;49.500;7.772;2023-12-28T14:16:44;9.00;99.90
13794;DHT22;31160;49.500;7.772;2023-12-28T14:19:12;9.00;99.90
13794;DHT22;31160;49.500;7.772;2023-12-28T14:21:40;8.90;99.90
13794;DHT22;31160;49.500;7.772;2023-12-28T14:24:07;9.00;99.90
13794;DHT22;31160;49.500;7.772;2023-12-28T14:26:40;8.90;99.90
13794;DHT22;31160;49.500;7.772;2023-12-28T14:29:09;8.80;99.90
13794;DHT22;31160;49.500;7.772;2023-12-28T14:31:36;8.90;99.90
13794;DHT22;31160;49.500;7.772;2023-12-28T14:34:03;8.90;99.90
13794;DHT22;31160;49.500;7.772;2023-12-28T14:36:33;9.00;99.90
13794;DHT22;31160;49.500;7.772;2023-12-28T14:39:02;9.10;99.90
13794;DHT22;31160;49.500;7.772;2023-12-28T14:41:33;9.20;99.90
13794;DHT22;31160;49.500;7.772;2023-12-28T14:44:00;9.20;99.90
13794;DHT22;31160;49.500;7.772;2023-12-28T14:46:27;9.10;99.90
13794;DHT22;31160;49.500;7.772;2023-12-28T14:48:55;9.00;99.90
13794;DHT22;31160;49.500;7.772;2023-12-28T14:51:22;9.10;99.90
13794;DHT22;31160;49.500;7.772;2023-12-28T14:53:49;9.10;99.90
13794;DHT22;31160;49.500;7.772;2023-12-28T14:56:16;9.20;99.90
13794;DHT22;31160;49.500;7.772;2023-12-28T14:58:43;9.10;99.90
13794;DHT22;31160;49.500;7.772;2023-12-28T15:01:15;9.00;99.90
13794;DHT22;31160;49.500;7.772;2023-12-28T15:03:42;8.80;99.90
13794;DHT22;31160;49.500;7.772;2023-12-28T15:06:09;8.80;99.90
13794;DHT22;31160;49.500;7.772;2023-12-28T15:08:37;8.90;99.90
13794;DHT22;31160;49.500;7.772;2023-12-28T15:11:04;8.80;99.90
13794;DHT22;31160;49.500;7.772;2023-12-28T15:13:33;8.90;99.90
13794;DHT22;31160;49.500;7.772;2023-12-28T15:16:00;8.70;99.90
13794;DHT22;31160;49.500;7.772;2023-12-28T15:18:30;8.70;99.90
13794;DHT22;31160;49.500;7.772;2023-12-28T15:20:57;8.70;99.90
13794;DHT22;31160;49.500;7.772;2023-12-28T15:23:24;8.80;99.90
13794;DHT22;31160;49.500;7.772;2023-12-28T15:25:53;8.80;99.90
13794;DHT22;31160;49.500;7.772;2023-12-28T15:28:20;8.70;99.90
13794;DHT22;31160;49.500;7.772;2023-12-28T15:30:47;8.60;99.90
13794;DHT22;31160;49.500;7.772;2023-12-28T15:33:15;8.50;99.90
13794;DHT22;31160;49.500;7.772;2023-12-28T15:35:42;8.50;99.90
13794;DHT22;31160;49.500;7.772;2023-12-28T15:38:09;8.50;99.90
13794;DHT22;31160;49.500;7.772;2023-12-28T15:40:36;8.50;99.90
13794;DHT22;31160;49.500;7.772;2023-12-28T15:43:02;8.50;99.90
13794;DHT22;31160;49.500;7.772;2023-12-28T15:45:29;8.50;99.90
13794;DHT22;31160;49.500;7.772;2023-12-28T15:47:57;8.40;99.90
13794;DHT22;31160;49.500;7.772;2023-12-28T15:50:25;8.50;99.90
13794;DHT22;31160;49.500;7.772;2023-12-28T15:52:51;8.50;99.90